sensor_id;sensor_type;location;lat;lon;timestamp;P1;durP1;ratioP1;P2;durP2;ratioP2
18249;SDS011;27980;52.126;5.572;2023-04-16T00:01:47;2.83;;;1.85;;
18249;SDS011;27980;52.126;5.572;2023-04-16T00:04:13;4.00;;;1.75;;
18249;SDS011;27980;52.126;5.572;2023-04-16T00:06:40;7.38;;;2.40;;
18249;SDS011;27980;52.126;5.572;2023-04-16T00:09:07;5.70;;;2.08;;
18249;SDS011;27980;52.126;5.572;2023-04-16T00:11:33;6.95;;;2.17;;
18249;SDS011;27980;52.126;5.572;2023-04-16T00:14:01;6.40;;;2.17;;
18249;SDS011;27980;52.126;5.572;2023-04-16T00:16:27;6.05;;;2.22;;
18249;SDS011;27980;52.126;5.572;2023-04-16T00:18:54;5.78;;;2.65;;
18249;SDS011;27980;52.126;5.572;2023-04-16T00:21:20;8.73;;;2.40;;
18249;SDS011;27980;52.126;5.572;2023-04-16T00:23:46;7.43;;;2.60;;
18249;SDS011;27980;52.126;5.572;2023-04-16T00:26:13;8.13;;;3.15;;
18249;SDS011;27980;52.126;5.572;2023-04-16T00:28:40;12.90;;;3.75;;
18249;SDS011;27980;52.126;5.572;2023-04-16T00:31:10;7.88;;;3.63;;
18249;SDS011;27980;52.126;5.572;2023-04-16T00:33:36;8.48;;;3.60;;
18249;SDS011;27980;52.126;5.572;2023-04-16T00:36:03;16.92;;;4.10;;
18249;SDS011;27980;52.126;5.572;2023-04-16T00:38:29;11.70;;;3.88;;
18249;SDS011;27980;52.126;5.572;2023-04-16T00:40:56;14.05;;;4.63;;
18249;SDS011;27980;52.126;5.572;2023-04-16T00:43:24;9.65;;;3.22;;
18249;SDS011;27980;52.126;5.572;2023-04-16T00:45:51;13.52;;;4.20;;
18249;SDS011;27980;52.126;5.572;2023-04-16T00:48:19;22.38;;;4.68;;
18249;SDS011;27980;52.126;5.572;2023-04-16T00:50:48;9.10;;;3.42;;
18249;SDS011;27980;52.126;5.572;2023-04-16T00:53:14;15.60;;;5.18;;
18249;SDS011;27980;52.126;5.572;2023-04-16T00:55:41;12.20;;;4.13;;
18249;SDS011;27980;52.126;5.572;2023-04-16T00:58:08;10.05;;;4.60;;
18249;SDS011;27980;52.126;5.572;2023-04-16T01:00:35;13.77;;;4.78;;
18249;SDS011;27980;52.126;5.572;2023-04-16T01:03:01;10.20;;;3.72;;
18249;SDS011;27980;52.126;5.572;2023-04-16T01:05:29;13.68;;;3.75;;
18249;SDS011;27980;52.126;5.572;2023-04-16T01:07:57;12.13;;;4.05;;
18249;SDS011;27980;52.126;5.572;2023-04-16T01:10:23;10.07;;;3.67;;
18249;SDS011;27980;52.126;5.572;2023-04-16T01:12:50;12.60;;;4.43;;
18249;SDS011;27980;52.126;5.572;2023-04-16T01:15:16;10.38;;;4.03;;
18249;SDS011;27980;52.126;5.572;2023-04-16T01:17:43;13.70;;;3.97;;
18249;SDS011;27980;52.126;5.572;2023-04-16T01:20:09;9.07;;;3.95;;
18249;SDS011;27980;52.126;5.572;2023-04-16T01:22:37;15.30;;;4.57;;
18249;SDS011;27980;52.126;5.572;2023-04-16T01:25:03;12.73;;;3.78;;
18249;SDS011;27980;52.126;5.572;2023-04-16T01:27:30;11.40;;;3.88;;
18249;SDS011;27980;52.126;5.572;2023-04-16T01:29:57;9.55;;;4.43;;
18249;SDS011;27980;52.126;5.572;2023-04-16T01:32:23;10.70;;;3.55;;
18249;SDS011;27980;52.126;5.572;2023-04-16T01:34:49;13.27;;;4.07;;
18249;SDS011;27980;52.126;5.572;2023-04-16T01:37:16;10.02;;;3.53;;
18249;SDS011;27980;52.126;5.572;2023-04-16T01:39:45;10.93;;;3.58;;
18249;SDS011;27980;52.126;5.572;2023-04-16T01:42:11;7.28;;;4.20;;
18249;SDS011;27980;52.126;5.572;2023-04-16T01:44:38;12.43;;;4.50;;
18249;SDS011;27980;52.126;5.572;2023-04-16T01:47:04;8.23;;;3.92;;
18249;SDS011;27980;52.126;5.572;2023-04-16T01:49:31;14.40;;;4.55;;
18249;SDS011;27980;52.126;5.572;2023-04-16T01:51:57;11.50;;;4.25;;
18249;SDS011;27980;52.126;5.572;2023-04-16T01:54:24;16.20;;;4.50;;
18249;SDS011;27980;52.126;5.572;2023-04-16T01:56:52;14.10;;;5.28;;
18249;SDS011;27980;52.126;5.572;2023-04-16T01:59:18;13.23;;;4.63;;
18249;SDS011;27980;52.126;5.572;2023-04-16T02:01:44;12.50;;;5.30;;
18249;SDS011;27980;52.126;5.572;2023-04-16T02:04:11;13.15;;;4.25;;
18249;SDS011;27980;52.126;5.572;2023-04-16T02:06:37;10.35;;;5.05;;
18249;SDS011;27980;52.126;5.572;2023-04-16T02:09:04;10.43;;;4.75;;
18249;SDS011;27980;52.126;5.572;2023-04-16T02:11:32;18.15;;;4.57;;
18249;SDS011;27980;52.126;5.572;2023-04-16T02:13:59;13.98;;;5.53;;
18249;SDS011;27980;52.126;5.572;2023-04-16T02:16:26;16.48;;;5.30;;
18249;SDS011;27980;52.126;5.572;2023-04-16T02:18:52;14.68;;;4.88;;
18249;SDS011;27980;52.126;5.572;2023-04-16T02:21:18;11.90;;;4.30;;
18249;SDS011;27980;52.126;5.572;2023-04-16T02:23:45;15.80;;;4.63;;
18249;SDS011;27980;52.126;5.572;2023-04-16T02:26:15;17.73;;;5.40;;
18249;SDS011;27980;52.126;5.572;2023-04-16T02:28:41;14.32;;;4.80;;
18249;SDS011;27980;52.126;5.572;2023-04-16T02:31:10;12.88;;;4.88;;
18249;SDS011;27980;52.126;5.572;2023-04-16T02:33:36;12.02;;;5.05;;
18249;SDS011;27980;52.126;5.572;2023-04-16T02:36:03;12.25;;;5.15;;
18249;SDS011;27980;52.126;5.572;2023-04-16T02:38:30;22.27;;;6.38;;
18249;SDS011;27980;52.126;5.572;2023-04-16T02:40:56;14.80;;;6.05;;
18249;SDS011;27980;52.126;5.572;2023-04-16T02:43:23;13.07;;;6.00;;
18249;SDS011;27980;52.126;5.572;2023-04-16T02:45:50;17.88;;;6.47;;
18249;SDS011;27980;52.126;5.572;2023-04-16T02:48:17;13.02;;;4.70;;
18249;SDS011;27980;52.126;5.572;2023-04-16T02:50:44;21.58;;;6.28;;
18249;SDS011;27980;52.126;5.572;2023-04-16T02:53:10;12.15;;;5.10;;
18249;SDS011;27980;52.126;5.572;2023-04-16T02:55:37;17.67;;;5.53;;
18249;SDS011;27980;52.126;5.572;2023-04-16T02:58:03;10.18;;;5.22;;
18249;SDS011;27980;52.126;5.572;2023-04-16T03:00:29;11.98;;;5.35;;
18249;SDS011;27980;52.126;5.572;2023-04-16T03:02:56;13.93;;;5.43;;
18249;SDS011;27980;52.126;5.572;2023-04-16T03:05:24;11.90;;;5.38;;
18249;SDS011;27980;52.126;5.572;2023-04-16T03:07:50;12.18;;;5.55;;
18249;SDS011;27980;52.126;5.572;2023-04-16T03:10:20;13.05;;;5.03;;
18249;SDS011;27980;52.126;5.572;2023-04-16T03:12:47;14.95;;;5.90;;
18249;SDS011;27980;52.126;5.572;2023-04-16T03:15:13;22.02;;;6.60;;
18249;SDS011;27980;52.126;5.572;2023-04-16T03:17:40;18.42;;;6.28;;
18249;SDS011;27980;52.126;5.572;2023-04-16T03:20:07;14.52;;;6.13;;
18249;SDS011;27980;52.126;5.572;2023-04-16T03:22:36;27.77;;;7.50;;
18249;SDS011;27980;52.126;5.572;2023-04-16T03:25:03;20.40;;;6.93;;
18249;SDS011;27980;52.126;5.572;2023-04-16T03:27:29;15.82;;;7.72;;
18249;SDS011;27980;52.126;5.572;2023-04-16T03:29:56;21.35;;;8.35;;
18249;SDS011;27980;52.126;5.572;2023-04-16T03:32:22;21.52;;;9.38;;
18249;SDS011;27980;52.126;5.572;2023-04-16T03:34:49;18.10;;;7.75;;
18249;SDS011;27980;52.126;5.572;2023-04-16T03:37:15;19.95;;;8.15;;
18249;SDS011;27980;52.126;5.572;2023-04-16T03:39:43;17.75;;;7.38;;
18249;SDS011;27980;52.126;5.572;2023-04-16T03:42:10;23.33;;;7.43;;
18249;SDS011;27980;52.126;5.572;2023-04-16T03:44:36;22.27;;;8.43;;
18249;SDS011;27980;52.126;5.572;2023-04-16T03:47:02;20.27;;;7.13;;
18249;SDS011;27980;52.126;5.572;2023-04-16T03:49:29;17.05;;;7.63;;
18249;SDS011;27980;52.126;5.572;2023-04-16T03:51:55;20.45;;;7.40;;
18249;SDS011;27980;52.126;5.572;2023-04-16T03:54:22;15.90;;;7.25;;
18249;SDS011;27980;52.126;5.572;2023-04-16T03:56:49;21.58;;;7.40;;
18249;SDS011;27980;52.126;5.572;2023-04-16T03:59:17;22.35;;;8.30;;
18249;SDS011;27980;52.126;5.572;2023-04-16T04:01:43;26.25;;;8.40;;
18249;SDS011;27980;52.126;5.572;2023-04-16T04:04:10;23.30;;;8.65;;
18249;SDS011;27980;52.126;5.572;2023-04-16T04:06:36;17.95;;;8.15;;
18249;SDS011;27980;52.126;5.572;2023-04-16T04:09:03;18.23;;;7.57;;
18249;SDS011;27980;52.126;5.572;2023-04-16T04:11:29;16.10;;;7.57;;
18249;SDS011;27980;52.126;5.572;2023-04-16T04:13:57;20.50;;;7.93;;
18249;SDS011;27980;52.126;5.572;2023-04-16T04:16:23;17.65;;;7.13;;
18249;SDS011;27980;52.126;5.572;2023-04-16T04:18:49;16.48;;;6.97;;
18249;SDS011;27980;52.126;5.572;2023-04-16T04:21:16;16.70;;;6.80;;
18249;SDS011;27980;52.126;5.572;2023-04-16T04:23:42;17.38;;;6.25;;
18249;SDS011;27980;52.126;5.572;2023-04-16T04:26:09;21.17;;;7.35;;
18249;SDS011;27980;52.126;5.572;2023-04-16T04:28:35;15.75;;;6.60;;
18249;SDS011;27980;52.126;5.572;2023-04-16T04:31:03;14.60;;;6.15;;
18249;SDS011;27980;52.126;5.572;2023-04-16T04:33:30;17.08;;;6.50;;
18249;SDS011;27980;52.126;5.572;2023-04-16T04:35:57;19.02;;;7.07;;
18249;SDS011;27980;52.126;5.572;2023-04-16T04:38:23;16.50;;;6.35;;
18249;SDS011;27980;52.126;5.572;2023-04-16T04:40:51;15.07;;;6.07;;
18249;SDS011;27980;52.126;5.572;2023-04-16T04:43:18;12.65;;;6.15;;
18249;SDS011;27980;52.126;5.572;2023-04-16T04:45:44;12.25;;;6.07;;
18249;SDS011;27980;52.126;5.572;2023-04-16T04:48:12;14.88;;;6.20;;
18249;SDS011;27980;52.126;5.572;2023-04-16T04:50:39;14.63;;;6.22;;
18249;SDS011;27980;52.126;5.572;2023-04-16T04:53:05;16.35;;;6.20;;
18249;SDS011;27980;52.126;5.572;2023-04-16T04:55:34;12.38;;;5.95;;
18249;SDS011;27980;52.126;5.572;2023-04-16T04:58:01;15.25;;;6.20;;
18249;SDS011;27980;52.126;5.572;2023-04-16T05:00:27;14.43;;;6.55;;
18249;SDS011;27980;52.126;5.572;2023-04-16T05:02:54;16.70;;;6.32;;
18249;SDS011;27980;52.126;5.572;2023-04-16T05:05:22;15.48;;;6.20;;
18249;SDS011;27980;52.126;5.572;2023-04-16T05:07:48;16.33;;;6.05;;
18249;SDS011;27980;52.126;5.572;2023-04-16T05:10:15;21.50;;;6.50;;
18249;SDS011;27980;52.126;5.572;2023-04-16T05:12:41;14.50;;;6.68;;
18249;SDS011;27980;52.126;5.572;2023-04-16T05:15:08;15.57;;;6.00;;
18249;SDS011;27980;52.126;5.572;2023-04-16T05:17:34;20.67;;;6.70;;
18249;SDS011;27980;52.126;5.572;2023-04-16T05:20:00;14.05;;;6.93;;
18249;SDS011;27980;52.126;5.572;2023-04-16T05:22:28;16.77;;;6.35;;
18249;SDS011;27980;52.126;5.572;2023-04-16T05:24:55;18.10;;;6.78;;
18249;SDS011;27980;52.126;5.572;2023-04-16T05:27:21;17.83;;;6.47;;
18249;SDS011;27980;52.126;5.572;2023-04-16T05:29:47;16.20;;;7.15;;
18249;SDS011;27980;52.126;5.572;2023-04-16T05:32:14;12.52;;;5.75;;
18249;SDS011;27980;52.126;5.572;2023-04-16T05:34:40;14.93;;;6.10;;
18249;SDS011;27980;52.126;5.572;2023-04-16T05:37:06;15.40;;;6.30;;
18249;SDS011;27980;52.126;5.572;2023-04-16T05:39:34;15.75;;;6.85;;
18249;SDS011;27980;52.126;5.572;2023-04-16T05:42:02;13.25;;;6.70;;
18249;SDS011;27980;52.126;5.572;2023-04-16T05:44:28;12.20;;;5.75;;
18249;SDS011;27980;52.126;5.572;2023-04-16T05:46:55;17.25;;;7.07;;
18249;SDS011;27980;52.126;5.572;2023-04-16T05:49:21;13.55;;;6.55;;
18249;SDS011;27980;52.126;5.572;2023-04-16T05:51:48;15.82;;;6.78;;
18249;SDS011;27980;52.126;5.572;2023-04-16T05:54:14;14.77;;;6.40;;
18249;SDS011;27980;52.126;5.572;2023-04-16T05:56:42;14.98;;;6.95;;
18249;SDS011;27980;52.126;5.572;2023-04-16T05:59:08;12.23;;;6.13;;
18249;SDS011;27980;52.126;5.572;2023-04-16T06:01:35;12.52;;;6.32;;
18249;SDS011;27980;52.126;5.572;2023-04-16T06:04:01;21.50;;;7.00;;
18249;SDS011;27980;52.126;5.572;2023-04-16T06:06:27;17.90;;;7.13;;
18249;SDS011;27980;52.126;5.572;2023-04-16T06:08:54;15.10;;;6.43;;
18249;SDS011;27980;52.126;5.572;2023-04-16T06:11:20;12.52;;;5.80;;
18249;SDS011;27980;52.126;5.572;2023-04-16T06:13:48;15.20;;;6.60;;
18249;SDS011;27980;52.126;5.572;2023-04-16T06:16:14;18.67;;;7.00;;
18249;SDS011;27980;52.126;5.572;2023-04-16T06:18:41;18.27;;;7.10;;
18249;SDS011;27980;52.126;5.572;2023-04-16T06:21:07;13.80;;;6.10;;
18249;SDS011;27980;52.126;5.572;2023-04-16T06:23:34;16.35;;;6.88;;
18249;SDS011;27980;52.126;5.572;2023-04-16T06:26:00;17.27;;;6.90;;
18249;SDS011;27980;52.126;5.572;2023-04-16T06:28:27;16.20;;;6.55;;
18249;SDS011;27980;52.126;5.572;2023-04-16T06:30:54;18.67;;;6.50;;
18249;SDS011;27980;52.126;5.572;2023-04-16T06:33:21;17.77;;;8.02;;
18249;SDS011;27980;52.126;5.572;2023-04-16T06:35:47;18.67;;;7.47;;
18249;SDS011;27980;52.126;5.572;2023-04-16T06:38:14;18.88;;;8.48;;
18249;SDS011;27980;52.126;5.572;2023-04-16T06:40:40;19.95;;;8.15;;
18249;SDS011;27980;52.126;5.572;2023-04-16T06:43:08;22.70;;;7.45;;
18249;SDS011;27980;52.126;5.572;2023-04-16T06:45:35;13.30;;;7.10;;
18249;SDS011;27980;52.126;5.572;2023-04-16T06:48:02;19.85;;;7.65;;
18249;SDS011;27980;52.126;5.572;2023-04-16T06:50:29;17.33;;;7.82;;
18249;SDS011;27980;52.126;5.572;2023-04-16T06:52:56;20.90;;;7.57;;
18249;SDS011;27980;52.126;5.572;2023-04-16T06:55:22;16.90;;;8.45;;
18249;SDS011;27980;52.126;5.572;2023-04-16T06:57:49;20.75;;;9.00;;
18249;SDS011;27980;52.126;5.572;2023-04-16T07:00:15;19.88;;;7.45;;
18249;SDS011;27980;52.126;5.572;2023-04-16T07:02:42;28.33;;;9.27;;
18249;SDS011;27980;52.126;5.572;2023-04-16T07:05:10;16.52;;;8.02;;
18249;SDS011;27980;52.126;5.572;2023-04-16T07:07:36;19.55;;;7.78;;
18249;SDS011;27980;52.126;5.572;2023-04-16T07:10:03;20.00;;;8.45;;
18249;SDS011;27980;52.126;5.572;2023-04-16T07:12:31;17.30;;;8.10;;
18249;SDS011;27980;52.126;5.572;2023-04-16T07:14:57;22.88;;;9.00;;
18249;SDS011;27980;52.126;5.572;2023-04-16T07:17:24;19.52;;;9.35;;
18249;SDS011;27980;52.126;5.572;2023-04-16T07:19:50;21.92;;;8.15;;
18249;SDS011;27980;52.126;5.572;2023-04-16T07:22:18;18.73;;;8.65;;
18249;SDS011;27980;52.126;5.572;2023-04-16T07:24:44;18.80;;;8.40;;
18249;SDS011;27980;52.126;5.572;2023-04-16T07:27:11;19.90;;;8.38;;
18249;SDS011;27980;52.126;5.572;2023-04-16T07:29:37;17.88;;;7.75;;
18249;SDS011;27980;52.126;5.572;2023-04-16T07:32:06;13.10;;;7.03;;
18249;SDS011;27980;52.126;5.572;2023-04-16T07:34:33;15.25;;;7.60;;
18249;SDS011;27980;52.126;5.572;2023-04-16T07:36:59;20.58;;;9.35;;
18249;SDS011;27980;52.126;5.572;2023-04-16T07:39:27;18.10;;;9.23;;
18249;SDS011;27980;52.126;5.572;2023-04-16T07:41:54;13.73;;;7.50;;
18249;SDS011;27980;52.126;5.572;2023-04-16T07:44:22;18.05;;;7.88;;
18249;SDS011;27980;52.126;5.572;2023-04-16T07:46:48;21.48;;;7.80;;
18249;SDS011;27980;52.126;5.572;2023-04-16T07:49:15;16.23;;;7.68;;
18249;SDS011;27980;52.126;5.572;2023-04-16T07:51:41;20.27;;;8.68;;
18249;SDS011;27980;52.126;5.572;2023-04-16T07:54:08;17.77;;;8.23;;
18249;SDS011;27980;52.126;5.572;2023-04-16T07:56:36;19.55;;;7.93;;
18249;SDS011;27980;52.126;5.572;2023-04-16T07:59:02;19.02;;;8.43;;
18249;SDS011;27980;52.126;5.572;2023-04-16T08:01:29;13.43;;;7.18;;
18249;SDS011;27980;52.126;5.572;2023-04-16T08:03:55;17.73;;;8.02;;
18249;SDS011;27980;52.126;5.572;2023-04-16T08:06:22;31.13;;;8.57;;
18249;SDS011;27980;52.126;5.572;2023-04-16T08:08:48;19.23;;;7.50;;
18249;SDS011;27980;52.126;5.572;2023-04-16T08:11:14;22.27;;;8.73;;
18249;SDS011;27980;52.126;5.572;2023-04-16T08:13:42;18.27;;;7.03;;
18249;SDS011;27980;52.126;5.572;2023-04-16T08:16:09;16.77;;;8.18;;
18249;SDS011;27980;52.126;5.572;2023-04-16T08:18:35;20.08;;;8.50;;
18249;SDS011;27980;52.126;5.572;2023-04-16T08:21:02;18.58;;;7.82;;
18249;SDS011;27980;52.126;5.572;2023-04-16T08:23:29;18.92;;;8.18;;
18249;SDS011;27980;52.126;5.572;2023-04-16T08:25:55;21.38;;;7.35;;
18249;SDS011;27980;52.126;5.572;2023-04-16T08:28:21;18.25;;;7.75;;
18249;SDS011;27980;52.126;5.572;2023-04-16T08:30:49;18.48;;;8.05;;
18249;SDS011;27980;52.126;5.572;2023-04-16T08:33:15;14.73;;;8.20;;
18249;SDS011;27980;52.126;5.572;2023-04-16T08:35:42;16.30;;;7.95;;
18249;SDS011;27980;52.126;5.572;2023-04-16T08:38:08;15.55;;;7.25;;
18249;SDS011;27980;52.126;5.572;2023-04-16T08:40:36;20.70;;;8.10;;
18249;SDS011;27980;52.126;5.572;2023-04-16T08:43:04;21.38;;;7.78;;
18249;SDS011;27980;52.126;5.572;2023-04-16T08:45:31;19.52;;;8.32;;
18249;SDS011;27980;52.126;5.572;2023-04-16T08:48:00;20.40;;;8.25;;
18249;SDS011;27980;52.126;5.572;2023-04-16T08:50:29;20.70;;;8.07;;
18249;SDS011;27980;52.126;5.572;2023-04-16T08:52:59;17.75;;;7.80;;
18249;SDS011;27980;52.126;5.572;2023-04-16T08:55:32;17.13;;;7.10;;
18249;SDS011;27980;52.126;5.572;2023-04-16T08:58:02;14.38;;;7.63;;
18249;SDS011;27980;52.126;5.572;2023-04-16T09:00:29;16.98;;;7.45;;
18249;SDS011;27980;52.126;5.572;2023-04-16T09:02:56;15.32;;;7.10;;
18249;SDS011;27980;52.126;5.572;2023-04-16T09:05:25;18.27;;;7.97;;
18249;SDS011;27980;52.126;5.572;2023-04-16T09:07:52;18.05;;;7.43;;
18249;SDS011;27980;52.126;5.572;2023-04-16T09:10:19;15.90;;;7.70;;
18249;SDS011;27980;52.126;5.572;2023-04-16T09:12:45;17.35;;;7.72;;
18249;SDS011;27980;52.126;5.572;2023-04-16T09:15:12;15.48;;;7.53;;
18249;SDS011;27980;52.126;5.572;2023-04-16T09:17:39;20.30;;;7.95;;
18249;SDS011;27980;52.126;5.572;2023-04-16T09:20:06;17.67;;;8.20;;
18249;SDS011;27980;52.126;5.572;2023-04-16T09:22:37;12.38;;;6.88;;
18249;SDS011;27980;52.126;5.572;2023-04-16T09:25:04;13.25;;;6.22;;
18249;SDS011;27980;52.126;5.572;2023-04-16T09:27:31;19.17;;;7.70;;
18249;SDS011;27980;52.126;5.572;2023-04-16T09:29:57;14.10;;;6.75;;
18249;SDS011;27980;52.126;5.572;2023-04-16T09:32:25;16.73;;;7.47;;
18249;SDS011;27980;52.126;5.572;2023-04-16T09:34:53;17.75;;;7.32;;
18249;SDS011;27980;52.126;5.572;2023-04-16T09:37:20;14.77;;;6.78;;
18249;SDS011;27980;52.126;5.572;2023-04-16T09:39:52;16.55;;;7.50;;
18249;SDS011;27980;52.126;5.572;2023-04-16T09:42:20;15.18;;;7.82;;
18249;SDS011;27980;52.126;5.572;2023-04-16T09:44:48;13.90;;;6.65;;
18249;SDS011;27980;52.126;5.572;2023-04-16T09:47:14;14.20;;;6.78;;
18249;SDS011;27980;52.126;5.572;2023-04-16T09:49:41;14.63;;;7.15;;
18249;SDS011;27980;52.126;5.572;2023-04-16T09:52:08;17.17;;;6.95;;
18249;SDS011;27980;52.126;5.572;2023-04-16T09:54:37;12.20;;;6.57;;
18249;SDS011;27980;52.126;5.572;2023-04-16T09:57:08;12.85;;;6.72;;
18249;SDS011;27980;52.126;5.572;2023-04-16T09:59:34;15.95;;;7.05;;
18249;SDS011;27980;52.126;5.572;2023-04-16T10:02:01;12.15;;;6.07;;
18249;SDS011;27980;52.126;5.572;2023-04-16T10:04:28;10.15;;;6.47;;
18249;SDS011;27980;52.126;5.572;2023-04-16T10:07:01;16.52;;;6.45;;
18249;SDS011;27980;52.126;5.572;2023-04-16T10:09:30;16.02;;;6.43;;
18249;SDS011;27980;52.126;5.572;2023-04-16T10:11:56;16.27;;;6.22;;
18249;SDS011;27980;52.126;5.572;2023-04-16T10:14:24;12.77;;;6.35;;
18249;SDS011;27980;52.126;5.572;2023-04-16T10:16:51;15.40;;;6.78;;
18249;SDS011;27980;52.126;5.572;2023-04-16T10:19:18;15.05;;;7.25;;
18249;SDS011;27980;52.126;5.572;2023-04-16T10:21:45;12.65;;;6.00;;
18249;SDS011;27980;52.126;5.572;2023-04-16T10:24:12;13.10;;;7.38;;
18249;SDS011;27980;52.126;5.572;2023-04-16T10:26:40;11.05;;;6.18;;
18249;SDS011;27980;52.126;5.572;2023-04-16T10:29:07;16.95;;;6.85;;
18249;SDS011;27980;52.126;5.572;2023-04-16T10:31:35;24.30;;;7.15;;
18249;SDS011;27980;52.126;5.572;2023-04-16T10:34:01;12.63;;;7.68;;
18249;SDS011;27980;52.126;5.572;2023-04-16T10:36:28;15.80;;;7.43;;
18249;SDS011;27980;52.126;5.572;2023-04-16T10:38:56;13.80;;;6.63;;
18249;SDS011;27980;52.126;5.572;2023-04-16T10:41:24;14.95;;;7.50;;
18249;SDS011;27980;52.126;5.572;2023-04-16T10:43:51;16.08;;;6.38;;
18249;SDS011;27980;52.126;5.572;2023-04-16T10:46:18;13.00;;;6.60;;
18249;SDS011;27980;52.126;5.572;2023-04-16T10:48:46;10.55;;;5.93;;
18249;SDS011;27980;52.126;5.572;2023-04-16T10:54:01;13.25;;;7.53;;
18249;SDS011;27980;52.126;5.572;2023-04-16T10:56:30;13.02;;;6.40;;
18249;SDS011;27980;52.126;5.572;2023-04-16T10:58:57;13.07;;;6.72;;
18249;SDS011;27980;52.126;5.572;2023-04-16T11:01:30;16.80;;;6.75;;
18249;SDS011;27980;52.126;5.572;2023-04-16T11:03:58;11.25;;;6.40;;
18249;SDS011;27980;52.126;5.572;2023-04-16T11:06:28;13.95;;;7.00;;
18249;SDS011;27980;52.126;5.572;2023-04-16T11:08:55;9.57;;;6.35;;
18249;SDS011;27980;52.126;5.572;2023-04-16T11:11:22;11.57;;;6.20;;
18249;SDS011;27980;52.126;5.572;2023-04-16T11:13:53;15.43;;;5.45;;
18249;SDS011;27980;52.126;5.572;2023-04-16T11:16:20;12.02;;;6.38;;
18249;SDS011;27980;52.126;5.572;2023-04-16T11:18:47;10.32;;;5.78;;
18249;SDS011;27980;52.126;5.572;2023-04-16T11:21:15;13.73;;;6.40;;
18249;SDS011;27980;52.126;5.572;2023-04-16T11:23:45;14.00;;;6.40;;
18249;SDS011;27980;52.126;5.572;2023-04-16T11:26:19;11.55;;;6.28;;
18249;SDS011;27980;52.126;5.572;2023-04-16T11:28:45;12.15;;;6.13;;
18249;SDS011;27980;52.126;5.572;2023-04-16T11:31:12;15.20;;;7.10;;
18249;SDS011;27980;52.126;5.572;2023-04-16T11:33:38;11.45;;;6.60;;
18249;SDS011;27980;52.126;5.572;2023-04-16T11:36:05;12.70;;;6.63;;
18249;SDS011;27980;52.126;5.572;2023-04-16T11:38:34;15.73;;;7.15;;
18249;SDS011;27980;52.126;5.572;2023-04-16T11:41:01;12.07;;;6.60;;
18249;SDS011;27980;52.126;5.572;2023-04-16T11:43:28;14.70;;;6.70;;
18249;SDS011;27980;52.126;5.572;2023-04-16T11:45:58;11.48;;;6.38;;
18249;SDS011;27980;52.126;5.572;2023-04-16T11:48:25;11.35;;;5.38;;
18249;SDS011;27980;52.126;5.572;2023-04-16T11:50:54;11.73;;;6.30;;
18249;SDS011;27980;52.126;5.572;2023-04-16T11:53:21;10.00;;;5.65;;
18249;SDS011;27980;52.126;5.572;2023-04-16T11:55:50;10.82;;;6.18;;
18249;SDS011;27980;52.126;5.572;2023-04-16T11:58:17;14.77;;;5.47;;
18249;SDS011;27980;52.126;5.572;2023-04-16T12:00:44;11.38;;;5.82;;
18249;SDS011;27980;52.126;5.572;2023-04-16T12:03:11;12.82;;;6.25;;
18249;SDS011;27980;52.126;5.572;2023-04-16T12:05:38;13.77;;;6.22;;
18249;SDS011;27980;52.126;5.572;2023-04-16T12:08:05;10.18;;;5.65;;
18249;SDS011;27980;52.126;5.572;2023-04-16T12:10:33;11.15;;;6.20;;
18249;SDS011;27980;52.126;5.572;2023-04-16T12:13:11;14.65;;;6.93;;
18249;SDS011;27980;52.126;5.572;2023-04-16T12:15:47;11.82;;;6.10;;
18249;SDS011;27980;52.126;5.572;2023-04-16T12:18:14;13.32;;;6.45;;
18249;SDS011;27980;52.126;5.572;2023-04-16T12:20:41;17.45;;;6.85;;
18249;SDS011;27980;52.126;5.572;2023-04-16T12:23:08;10.98;;;6.50;;
18249;SDS011;27980;52.126;5.572;2023-04-16T12:25:34;12.45;;;6.60;;
18249;SDS011;27980;52.126;5.572;2023-04-16T12:28:01;10.88;;;6.88;;
18249;SDS011;27980;52.126;5.572;2023-04-16T12:30:28;13.02;;;5.95;;
18249;SDS011;27980;52.126;5.572;2023-04-16T12:35:40;11.60;;;6.30;;
18249;SDS011;27980;52.126;5.572;2023-04-16T12:38:09;11.70;;;5.70;;
18249;SDS011;27980;52.126;5.572;2023-04-16T12:40:36;15.93;;;7.15;;
18249;SDS011;27980;52.126;5.572;2023-04-16T12:43:05;14.25;;;7.05;;
18249;SDS011;27980;52.126;5.572;2023-04-16T12:45:34;18.35;;;7.50;;
18249;SDS011;27980;52.126;5.572;2023-04-16T12:48:00;15.40;;;7.05;;
18249;SDS011;27980;52.126;5.572;2023-04-16T12:50:26;16.33;;;6.90;;
18249;SDS011;27980;52.126;5.572;2023-04-16T12:52:54;14.93;;;7.50;;
18249;SDS011;27980;52.126;5.572;2023-04-16T12:55:20;14.25;;;7.57;;
18249;SDS011;27980;52.126;5.572;2023-04-16T12:57:47;12.18;;;7.50;;
18249;SDS011;27980;52.126;5.572;2023-04-16T13:00:14;13.75;;;7.50;;
18249;SDS011;27980;52.126;5.572;2023-04-16T13:02:43;14.43;;;7.57;;
18249;SDS011;27980;52.126;5.572;2023-04-16T13:05:09;17.75;;;8.10;;
18249;SDS011;27980;52.126;5.572;2023-04-16T13:07:37;20.83;;;8.07;;
18249;SDS011;27980;52.126;5.572;2023-04-16T13:10:04;14.18;;;7.50;;
18249;SDS011;27980;52.126;5.572;2023-04-16T13:12:30;17.20;;;7.82;;
18249;SDS011;27980;52.126;5.572;2023-04-16T13:14:57;20.35;;;8.30;;
18249;SDS011;27980;52.126;5.572;2023-04-16T13:17:23;15.27;;;7.05;;
18249;SDS011;27980;52.126;5.572;2023-04-16T13:19:51;15.98;;;7.75;;
18249;SDS011;27980;52.126;5.572;2023-04-16T13:22:17;18.60;;;8.48;;
18249;SDS011;27980;52.126;5.572;2023-04-16T13:24:44;16.23;;;6.30;;
18249;SDS011;27980;52.126;5.572;2023-04-16T13:27:11;18.00;;;7.30;;
18249;SDS011;27980;52.126;5.572;2023-04-16T13:29:39;12.20;;;6.68;;
18249;SDS011;27980;52.126;5.572;2023-04-16T13:32:07;13.52;;;6.55;;
18249;SDS011;27980;52.126;5.572;2023-04-16T13:34:33;13.45;;;7.65;;
18249;SDS011;27980;52.126;5.572;2023-04-16T13:37:01;18.13;;;8.43;;
18249;SDS011;27980;52.126;5.572;2023-04-16T13:39:28;14.32;;;7.22;;
18249;SDS011;27980;52.126;5.572;2023-04-16T13:41:55;17.92;;;7.22;;
18249;SDS011;27980;52.126;5.572;2023-04-16T13:44:21;13.07;;;6.50;;
18249;SDS011;27980;52.126;5.572;2023-04-16T13:46:48;11.68;;;6.20;;
18249;SDS011;27980;52.126;5.572;2023-04-16T13:49:14;15.60;;;6.82;;
18249;SDS011;27980;52.126;5.572;2023-04-16T13:51:41;15.23;;;7.18;;
18249;SDS011;27980;52.126;5.572;2023-04-16T13:54:10;15.02;;;7.22;;
18249;SDS011;27980;52.126;5.572;2023-04-16T13:56:36;14.93;;;6.80;;
18249;SDS011;27980;52.126;5.572;2023-04-16T13:59:03;14.32;;;6.55;;
18249;SDS011;27980;52.126;5.572;2023-04-16T14:01:29;12.15;;;6.13;;
18249;SDS011;27980;52.126;5.572;2023-04-16T14:03:56;15.18;;;6.85;;
18249;SDS011;27980;52.126;5.572;2023-04-16T14:06:23;14.27;;;6.40;;
18249;SDS011;27980;52.126;5.572;2023-04-16T14:08:50;16.45;;;7.22;;
18249;SDS011;27980;52.126;5.572;2023-04-16T14:11:20;13.57;;;6.05;;
18249;SDS011;27980;52.126;5.572;2023-04-16T14:13:47;18.50;;;7.40;;
18249;SDS011;27980;52.126;5.572;2023-04-16T14:16:14;14.18;;;6.28;;
18249;SDS011;27980;52.126;5.572;2023-04-16T14:18:40;13.43;;;6.15;;
18249;SDS011;27980;52.126;5.572;2023-04-16T14:21:07;11.15;;;5.38;;
18249;SDS011;27980;52.126;5.572;2023-04-16T14:23:34;14.55;;;5.15;;
18249;SDS011;27980;52.126;5.572;2023-04-16T14:26:01;11.75;;;6.10;;
18249;SDS011;27980;52.126;5.572;2023-04-16T14:28:29;11.77;;;5.28;;
18249;SDS011;27980;52.126;5.572;2023-04-16T14:30:55;11.52;;;5.82;;
18249;SDS011;27980;52.126;5.572;2023-04-16T14:33:22;14.55;;;5.78;;
18249;SDS011;27980;52.126;5.572;2023-04-16T14:35:48;15.05;;;6.47;;
18249;SDS011;27980;52.126;5.572;2023-04-16T14:38:15;12.48;;;6.05;;
18249;SDS011;27980;52.126;5.572;2023-04-16T14:40:41;13.30;;;6.35;;